sensor_id;sensor_type;location;lat;lon;timestamp;P1;P2;P0
47741;PMS5003;33504;52.066;6.096;2023-01-30T00:01:00;85;75;
47741;PMS5003;33504;52.066;6.096;2023-01-30T00:03:28;79;75;
47741;PMS5003;33504;52.066;6.096;2023-01-30T00:05:56;104;98;
47741;PMS5003;33504;52.066;6.096;2023-01-30T00:08:23;104;98;
47741;PMS5003;33504;52.066;6.096;2023-01-30T00:10:49;78;74;
47741;PMS5003;33504;52.066;6.096;2023-01-30T00:13:17;74;70;
47741;PMS5003;33504;52.066;6.096;2023-01-30T00:15:44;76;73;
47741;PMS5003;33504;52.066;6.096;2023-01-30T00:18:10;74;73;
47741;PMS5003;33504;52.066;6.096;2023-01-30T00:20:37;94;88;
47741;PMS5003;33504;52.066;6.096;2023-01-30T00:23:04;65;61;
47741;PMS5003;33504;52.066;6.096;2023-01-30T00:25:32;77;69;
47741;PMS5003;33504;52.066;6.096;2023-01-30T00:27:59;104;99;
47741;PMS5003;33504;52.066;6.096;2023-01-30T00:30:27;100;97;
47741;PMS5003;33504;52.066;6.096;2023-01-30T00:32:55;91;85;
47741;PMS5003;33504;52.066;6.096;2023-01-30T00:35:23;99;96;
47741;PMS5003;33504;52.066;6.096;2023-01-30T00:37:49;106;97;
47741;PMS5003;33504;52.066;6.096;2023-01-30T00:40:17;87;83;
47741;PMS5003;33504;52.066;6.096;2023-01-30T00:42:44;96;82;
47741;PMS5003;33504;52.066;6.096;2023-01-30T00:45:11;78;71;
47741;PMS5003;33504;52.066;6.096;2023-01-30T00:47:39;74;71;
47741;PMS5003;33504;52.066;6.096;2023-01-30T00:50:07;93;85;
47741;PMS5003;33504;52.066;6.096;2023-01-30T00:52:35;82;76;
47741;PMS5003;33504;52.066;6.096;2023-01-30T00:55:02;84;76;
47741;PMS5003;33504;52.066;6.096;2023-01-30T00:57:29;93;89;
47741;PMS5003;33504;52.066;6.096;2023-01-30T00:59:57;106;98;
47741;PMS5003;33504;52.066;6.096;2023-01-30T01:02:24;82;79;
47741;PMS5003;33504;52.066;6.096;2023-01-30T01:04:51;96;89;
47741;PMS5003;33504;52.066;6.096;2023-01-30T01:07:18;85;77;
47741;PMS5003;33504;52.066;6.096;2023-01-30T01:09:45;83;79;
47741;PMS5003;33504;52.066;6.096;2023-01-30T01:12:13;97;89;
47741;PMS5003;33504;52.066;6.096;2023-01-30T01:14:39;96;91;
47741;PMS5003;33504;52.066;6.096;2023-01-30T01:17:06;106;93;
47741;PMS5003;33504;52.066;6.096;2023-01-30T01:19:34;91;82;
47741;PMS5003;33504;52.066;6.096;2023-01-30T01:22:01;83;78;
47741;PMS5003;33504;52.066;6.096;2023-01-30T01:24:28;84;80;
47741;PMS5003;33504;52.066;6.096;2023-01-30T01:26:55;80;77;
47741;PMS5003;33504;52.066;6.096;2023-01-30T01:29:24;83;80;
47741;PMS5003;33504;52.066;6.096;2023-01-30T01:31:51;85;78;
47741;PMS5003;33504;52.066;6.096;2023-01-30T01:34:18;86;77;
47741;PMS5003;33504;52.066;6.096;2023-01-30T01:36:47;77;75;
47741;PMS5003;33504;52.066;6.096;2023-01-30T01:39:14;80;74;
47741;PMS5003;33504;52.066;6.096;2023-01-30T01:41:41;76;71;
47741;PMS5003;33504;52.066;6.096;2023-01-30T01:44:09;72;66;
47741;PMS5003;33504;52.066;6.096;2023-01-30T01:46:38;84;79;
47741;PMS5003;33504;52.066;6.096;2023-01-30T01:49:11;86;77;
47741;PMS5003;33504;52.066;6.096;2023-01-30T01:51:44;87;79;
47741;PMS5003;33504;52.066;6.096;2023-01-30T01:54:18;83;77;
47741;PMS5003;33504;52.066;6.096;2023-01-30T01:56:49;78;75;
47741;PMS5003;33504;52.066;6.096;2023-01-30T01:59:18;81;79;
47741;PMS5003;33504;52.066;6.096;2023-01-30T02:01:49;70;66;
47741;PMS5003;33504;52.066;6.096;2023-01-30T02:04:21;80;73;
47741;PMS5003;33504;52.066;6.096;2023-01-30T02:06:50;76;73;
47741;PMS5003;33504;52.066;6.096;2023-01-30T02:09:16;78;74;
47741;PMS5003;33504;52.066;6.096;2023-01-30T02:11:45;77;68;
47741;PMS5003;33504;52.066;6.096;2023-01-30T02:14:18;70;67;
47741;PMS5003;33504;52.066;6.096;2023-01-30T02:16:46;83;76;
47741;PMS5003;33504;52.066;6.096;2023-01-30T02:19:23;76;73;
47741;PMS5003;33504;52.066;6.096;2023-01-30T02:22:04;75;71;
47741;PMS5003;33504;52.066;6.096;2023-01-30T02:24:46;71;63;
47741;PMS5003;33504;52.066;6.096;2023-01-30T02:27:21;87;80;
47741;PMS5003;33504;52.066;6.096;2023-01-30T02:30:13;72;68;
47741;PMS5003;33504;52.066;6.096;2023-01-30T02:32:56;66;62;
47741;PMS5003;33504;52.066;6.096;2023-01-30T02:35:35;68;67;
47741;PMS5003;33504;52.066;6.096;2023-01-30T02:38:14;65;64;
47741;PMS5003;33504;52.066;6.096;2023-01-30T02:40:51;78;72;
47741;PMS5003;33504;52.066;6.096;2023-01-30T02:43:29;65;62;
47741;PMS5003;33504;52.066;6.096;2023-01-30T02:46:04;74;72;
47741;PMS5003;33504;52.066;6.096;2023-01-30T02:48:38;68;66;
47741;PMS5003;33504;52.066;6.096;2023-01-30T02:51:10;51;48;
47741;PMS5003;33504;52.066;6.096;2023-01-30T02:53:42;51;50;
47741;PMS5003;33504;52.066;6.096;2023-01-30T02:56:11;76;72;
47741;PMS5003;33504;52.066;6.096;2023-01-30T02:58:39;53;49;
47741;PMS5003;33504;52.066;6.096;2023-01-30T03:01:17;48;46;
47741;PMS5003;33504;52.066;6.096;2023-01-30T03:04:02;51;46;
47741;PMS5003;33504;52.066;6.096;2023-01-30T03:06:46;41;38;
47741;PMS5003;33504;52.066;6.096;2023-01-30T03:09:27;37;35;
47741;PMS5003;33504;52.066;6.096;2023-01-30T03:12:02;48;46;
47741;PMS5003;33504;52.066;6.096;2023-01-30T03:14:38;37;37;
47741;PMS5003;33504;52.066;6.096;2023-01-30T03:17:13;37;35;
47741;PMS5003;33504;52.066;6.096;2023-01-30T03:19:43;33;32;
47741;PMS5003;33504;52.066;6.096;2023-01-30T03:22:10;30;29;
47741;PMS5003;33504;52.066;6.096;2023-01-30T03:24:37;28;27;
47741;PMS5003;33504;52.066;6.096;2023-01-30T03:27:06;51;46;
47741;PMS5003;33504;52.066;6.096;2023-01-30T03:29:36;29;29;
47741;PMS5003;33504;52.066;6.096;2023-01-30T03:32:04;112;111;
47741;PMS5003;33504;52.066;6.096;2023-01-30T03:34:32;34;33;
47741;PMS5003;33504;52.066;6.096;2023-01-30T03:37:00;49;49;
47741;PMS5003;33504;52.066;6.096;2023-01-30T03:39:27;49;48;
47741;PMS5003;33504;52.066;6.096;2023-01-30T03:41:54;78;74;
47741;PMS5003;33504;52.066;6.096;2023-01-30T03:44:21;44;43;
47741;PMS5003;33504;52.066;6.096;2023-01-30T03:46:49;27;27;
47741;PMS5003;33504;52.066;6.096;2023-01-30T03:49:16;24;24;
47741;PMS5003;33504;52.066;6.096;2023-01-30T03:51:43;51;51;
47741;PMS5003;33504;52.066;6.096;2023-01-30T03:54:10;135;134;
47741;PMS5003;33504;52.066;6.096;2023-01-30T03:56:38;164;163;
47741;PMS5003;33504;52.066;6.096;2023-01-30T03:59:06;27;26;
47741;PMS5003;33504;52.066;6.096;2023-01-30T04:01:33;24;24;
47741;PMS5003;33504;52.066;6.096;2023-01-30T04:04:00;32;30;
47741;PMS5003;33504;52.066;6.096;2023-01-30T04:06:27;44;42;
47741;PMS5003;33504;52.066;6.096;2023-01-30T04:08:55;28;26;
47741;PMS5003;33504;52.066;6.096;2023-01-30T04:11:21;30;29;
47741;PMS5003;33504;52.066;6.096;2023-01-30T04:13:49;29;29;
47741;PMS5003;33504;52.066;6.096;2023-01-30T04:16:17;22;22;
47741;PMS5003;33504;52.066;6.096;2023-01-30T04:18:45;27;25;
47741;PMS5003;33504;52.066;6.096;2023-01-30T04:21:13;23;21;
47741;PMS5003;33504;52.066;6.096;2023-01-30T04:23:40;27;26;
47741;PMS5003;33504;52.066;6.096;2023-01-30T04:26:08;27;25;
47741;PMS5003;33504;52.066;6.096;2023-01-30T04:28:35;25;24;
47741;PMS5003;33504;52.066;6.096;2023-01-30T04:31:02;29;26;
47741;PMS5003;33504;52.066;6.096;2023-01-30T04:33:30;27;24;
47741;PMS5003;33504;52.066;6.096;2023-01-30T04:35:58;21;21;
47741;PMS5003;33504;52.066;6.096;2023-01-30T04:38:26;29;27;
47741;PMS5003;33504;52.066;6.096;2023-01-30T04:40:54;29;28;
47741;PMS5003;33504;52.066;6.096;2023-01-30T04:43:22;28;27;
47741;PMS5003;33504;52.066;6.096;2023-01-30T04:45:51;26;23;
47741;PMS5003;33504;52.066;6.096;2023-01-30T04:48:18;26;24;
47741;PMS5003;33504;52.066;6.096;2023-01-30T04:50:46;26;24;
47741;PMS5003;33504;52.066;6.096;2023-01-30T04:53:16;29;26;
47741;PMS5003;33504;52.066;6.096;2023-01-30T04:55:43;26;26;
47741;PMS5003;33504;52.066;6.096;2023-01-30T04:58:12;26;25;
47741;PMS5003;33504;52.066;6.096;2023-01-30T05:00:39;19;19;
47741;PMS5003;33504;52.066;6.096;2023-01-30T05:03:06;23;22;
47741;PMS5003;33504;52.066;6.096;2023-01-30T05:05:33;28;27;
47741;PMS5003;33504;52.066;6.096;2023-01-30T05:08:01;21;20;
47741;PMS5003;33504;52.066;6.096;2023-01-30T05:10:28;26;23;
47741;PMS5003;33504;52.066;6.096;2023-01-30T05:12:55;20;16;
47741;PMS5003;33504;52.066;6.096;2023-01-30T05:15:26;17;15;
47741;PMS5003;33504;52.066;6.096;2023-01-30T05:17:53;26;25;
47741;PMS5003;33504;52.066;6.096;2023-01-30T05:20:20;14;13;
47741;PMS5003;33504;52.066;6.096;2023-01-30T05:22:47;14;13;
47741;PMS5003;33504;52.066;6.096;2023-01-30T05:25:14;14;13;
47741;PMS5003;33504;52.066;6.096;2023-01-30T05:27:41;16;15;
47741;PMS5003;33504;52.066;6.096;2023-01-30T05:30:09;15;13;
47741;PMS5003;33504;52.066;6.096;2023-01-30T05:32:37;13;12;
47741;PMS5003;33504;52.066;6.096;2023-01-30T05:35:04;9;9;
47741;PMS5003;33504;52.066;6.096;2023-01-30T05:37:32;15;12;
47741;PMS5003;33504;52.066;6.096;2023-01-30T05:39:59;9;9;
47741;PMS5003;33504;52.066;6.096;2023-01-30T05:42:26;14;12;
47741;PMS5003;33504;52.066;6.096;2023-01-30T05:44:54;13;11;
47741;PMS5003;33504;52.066;6.096;2023-01-30T05:47:21;10;9;
47741;PMS5003;33504;52.066;6.096;2023-01-30T05:49:48;14;14;
47741;PMS5003;33504;52.066;6.096;2023-01-30T05:52:16;9;8;
47741;PMS5003;33504;52.066;6.096;2023-01-30T05:54:43;9;8;
47741;PMS5003;33504;52.066;6.096;2023-01-30T05:57:10;10;10;
47741;PMS5003;33504;52.066;6.096;2023-01-30T05:59:38;10;9;
47741;PMS5003;33504;52.066;6.096;2023-01-30T06:02:05;10;8;
47741;PMS5003;33504;52.066;6.096;2023-01-30T06:04:32;6;6;
47741;PMS5003;33504;52.066;6.096;2023-01-30T06:06:59;10;8;
47741;PMS5003;33504;52.066;6.096;2023-01-30T06:09:26;9;9;
47741;PMS5003;33504;52.066;6.096;2023-01-30T06:11:54;5;5;
47741;PMS5003;33504;52.066;6.096;2023-01-30T06:14:20;9;7;
47741;PMS5003;33504;52.066;6.096;2023-01-30T06:16:47;8;5;
47741;PMS5003;33504;52.066;6.096;2023-01-30T06:19:14;8;7;
47741;PMS5003;33504;52.066;6.096;2023-01-30T06:21:41;8;7;
47741;PMS5003;33504;52.066;6.096;2023-01-30T06:24:08;6;5;
47741;PMS5003;33504;52.066;6.096;2023-01-30T06:26:35;11;9;
47741;PMS5003;33504;52.066;6.096;2023-01-30T06:29:02;9;8;
47741;PMS5003;33504;52.066;6.096;2023-01-30T06:31:29;12;7;
47741;PMS5003;33504;52.066;6.096;2023-01-30T06:33:55;8;7;
47741;PMS5003;33504;52.066;6.096;2023-01-30T06:36:23;9;8;
47741;PMS5003;33504;52.066;6.096;2023-01-30T06:38:50;8;8;
47741;PMS5003;33504;52.066;6.096;2023-01-30T06:41:17;8;8;
47741;PMS5003;33504;52.066;6.096;2023-01-30T06:43:45;6;6;
47741;PMS5003;33504;52.066;6.096;2023-01-30T06:46:12;10;5;
47741;PMS5003;33504;52.066;6.096;2023-01-30T06:48:39;8;8;
47741;PMS5003;33504;52.066;6.096;2023-01-30T06:51:06;10;6;
47741;PMS5003;33504;52.066;6.096;2023-01-30T06:53:33;11;9;
47741;PMS5003;33504;52.066;6.096;2023-01-30T06:56:00;9;9;
47741;PMS5003;33504;52.066;6.096;2023-01-30T06:58:28;22;20;
47741;PMS5003;33504;52.066;6.096;2023-01-30T07:00:55;14;11;
47741;PMS5003;33504;52.066;6.096;2023-01-30T07:03:22;13;12;
47741;PMS5003;33504;52.066;6.096;2023-01-30T07:05:49;16;12;
47741;PMS5003;33504;52.066;6.096;2023-01-30T07:08:16;7;4;
47741;PMS5003;33504;52.066;6.096;2023-01-30T07:10:43;5;4;
47741;PMS5003;33504;52.066;6.096;2023-01-30T07:13:11;6;5;
47741;PMS5003;33504;52.066;6.096;2023-01-30T07:15:38;6;4;
47741;PMS5003;33504;52.066;6.096;2023-01-30T07:18:06;7;5;
47741;PMS5003;33504;52.066;6.096;2023-01-30T07:20:34;5;4;
47741;PMS5003;33504;52.066;6.096;2023-01-30T07:23:00;5;4;
47741;PMS5003;33504;52.066;6.096;2023-01-30T07:25:28;5;4;
47741;PMS5003;33504;52.066;6.096;2023-01-30T07:27:56;5;5;
47741;PMS5003;33504;52.066;6.096;2023-01-30T07:30:25;3;3;
47741;PMS5003;33504;52.066;6.096;2023-01-30T07:32:53;6;4;
47741;PMS5003;33504;52.066;6.096;2023-01-30T07:35:22;8;6;
47741;PMS5003;33504;52.066;6.096;2023-01-30T07:37:50;8;5;
47741;PMS5003;33504;52.066;6.096;2023-01-30T07:40:18;8;5;
47741;PMS5003;33504;52.066;6.096;2023-01-30T07:42:54;7;5;
47741;PMS5003;33504;52.066;6.096;2023-01-30T07:45:21;6;5;
47741;PMS5003;33504;52.066;6.096;2023-01-30T07:47:49;6;4;
47741;PMS5003;33504;52.066;6.096;2023-01-30T07:50:16;5;5;
47741;PMS5003;33504;52.066;6.096;2023-01-30T07:52:43;7;5;
47741;PMS5003;33504;52.066;6.096;2023-01-30T07:55:11;7;4;
47741;PMS5003;33504;52.066;6.096;2023-01-30T07:57:38;8;5;
47741;PMS5003;33504;52.066;6.096;2023-01-30T08:00:06;5;3;
47741;PMS5003;33504;52.066;6.096;2023-01-30T08:02:35;7;5;
47741;PMS5003;33504;52.066;6.096;2023-01-30T08:05:02;6;4;
47741;PMS5003;33504;52.066;6.096;2023-01-30T08:07:30;6;5;
47741;PMS5003;33504;52.066;6.096;2023-01-30T08:09:57;6;3;
47741;PMS5003;33504;52.066;6.096;2023-01-30T08:12:24;7;5;
47741;PMS5003;33504;52.066;6.096;2023-01-30T08:14:51;4;3;
47741;PMS5003;33504;52.066;6.096;2023-01-30T08:17:18;9;5;
47741;PMS5003;33504;52.066;6.096;2023-01-30T08:19:46;10;6;
47741;PMS5003;33504;52.066;6.096;2023-01-30T08:22:13;11;8;
47741;PMS5003;33504;52.066;6.096;2023-01-30T08:24:41;15;13;
47741;PMS5003;33504;52.066;6.096;2023-01-30T08:27:08;16;11;
47741;PMS5003;33504;52.066;6.096;2023-01-30T08:29:35;12;10;
47741;PMS5003;33504;52.066;6.096;2023-01-30T08:32:03;5;4;
47741;PMS5003;33504;52.066;6.096;2023-01-30T08:34:30;7;5;
47741;PMS5003;33504;52.066;6.096;2023-01-30T08:36:57;4;3;
47741;PMS5003;33504;52.066;6.096;2023-01-30T08:39:24;5;4;
47741;PMS5003;33504;52.066;6.096;2023-01-30T08:41:51;9;6;
47741;PMS5003;33504;52.066;6.096;2023-01-30T08:44:19;8;4;
47741;PMS5003;33504;52.066;6.096;2023-01-30T08:46:45;5;3;
47741;PMS5003;33504;52.066;6.096;2023-01-30T08:49:12;12;7;
47741;PMS5003;33504;52.066;6.096;2023-01-30T08:51:40;11;8;
47741;PMS5003;33504;52.066;6.096;2023-01-30T08:54:07;8;6;
47741;PMS5003;33504;52.066;6.096;2023-01-30T08:56:34;10;8;
47741;PMS5003;33504;52.066;6.096;2023-01-30T08:59:01;5;5;
47741;PMS5003;33504;52.066;6.096;2023-01-30T09:01:28;7;5;
47741;PMS5003;33504;52.066;6.096;2023-01-30T09:03:55;6;5;
47741;PMS5003;33504;52.066;6.096;2023-01-30T09:06:23;13;8;
47741;PMS5003;33504;52.066;6.096;2023-01-30T09:08:50;5;3;
47741;PMS5003;33504;52.066;6.096;2023-01-30T09:11:17;8;7;
47741;PMS5003;33504;52.066;6.096;2023-01-30T09:13:44;9;5;
47741;PMS5003;33504;52.066;6.096;2023-01-30T09:16:11;6;5;
47741;PMS5003;33504;52.066;6.096;2023-01-30T09:18:39;9;7;
47741;PMS5003;33504;52.066;6.096;2023-01-30T09:21:07;7;4;
47741;PMS5003;33504;52.066;6.096;2023-01-30T09:23:35;5;5;
47741;PMS5003;33504;52.066;6.096;2023-01-30T09:26:04;5;3;
47741;PMS5003;33504;52.066;6.096;2023-01-30T09:28:32;6;5;
47741;PMS5003;33504;52.066;6.096;2023-01-30T09:31:00;8;5;
47741;PMS5003;33504;52.066;6.096;2023-01-30T09:33:28;10;7;
47741;PMS5003;33504;52.066;6.096;2023-01-30T09:35:55;6;3;
47741;PMS5003;33504;52.066;6.096;2023-01-30T09:38:23;7;4;
47741;PMS5003;33504;52.066;6.096;2023-01-30T09:40:53;11;6;
47741;PMS5003;33504;52.066;6.096;2023-01-30T09:43:34;14;11;
47741;PMS5003;33504;52.066;6.096;2023-01-30T09:46:15;8;3;
47741;PMS5003;33504;52.066;6.096;2023-01-30T09:48:54;6;5;
47741;PMS5003;33504;52.066;6.096;2023-01-30T09:51:29;7;6;
47741;PMS5003;33504;52.066;6.096;2023-01-30T09:54:17;5;4;
47741;PMS5003;33504;52.066;6.096;2023-01-30T09:56:50;8;6;
47741;PMS5003;33504;52.066;6.096;2023-01-30T09:59:22;7;4;
47741;PMS5003;33504;52.066;6.096;2023-01-30T10:01:58;5;3;
47741;PMS5003;33504;52.066;6.096;2023-01-30T10:04:36;8;7;
47741;PMS5003;33504;52.066;6.096;2023-01-30T10:07:15;5;5;
47741;PMS5003;33504;52.066;6.096;2023-01-30T10:09:50;4;4;
47741;PMS5003;33504;52.066;6.096;2023-01-30T10:12:27;10;6;
47741;PMS5003;33504;52.066;6.096;2023-01-30T10:15:07;4;4;
47741;PMS5003;33504;52.066;6.096;2023-01-30T10:17:50;6;5;
47741;PMS5003;33504;52.066;6.096;2023-01-30T10:20:28;6;4;
47741;PMS5003;33504;52.066;6.096;2023-01-30T10:23:10;6;6;
47741;PMS5003;33504;52.066;6.096;2023-01-30T10:25:51;9;8;
47741;PMS5003;33504;52.066;6.096;2023-01-30T10:28:21;8;5;
47741;PMS5003;33504;52.066;6.096;2023-01-30T10:30:55;7;5;
47741;PMS5003;33504;52.066;6.096;2023-01-30T10:33:29;7;4;
47741;PMS5003;33504;52.066;6.096;2023-01-30T10:36:02;5;4;
47741;PMS5003;33504;52.066;6.096;2023-01-30T10:38:34;9;5;
47741;PMS5003;33504;52.066;6.096;2023-01-30T10:41:09;4;3;
47741;PMS5003;33504;52.066;6.096;2023-01-30T10:43:45;6;5;
47741;PMS5003;33504;52.066;6.096;2023-01-30T10:46:22;6;5;
47741;PMS5003;33504;52.066;6.096;2023-01-30T10:48:59;5;3;
47741;PMS5003;33504;52.066;6.096;2023-01-30T10:51:33;4;4;
47741;PMS5003;33504;52.066;6.096;2023-01-30T10:54:10;6;4;
47741;PMS5003;33504;52.066;6.096;2023-01-30T10:56:41;5;5;
47741;PMS5003;33504;52.066;6.096;2023-01-30T10:59:19;10;6;
47741;PMS5003;33504;52.066;6.096;2023-01-30T11:01:51;6;4;
47741;PMS5003;33504;52.066;6.096;2023-01-30T11:04:25;4;3;
47741;PMS5003;33504;52.066;6.096;2023-01-30T11:06:56;3;2;
47741;PMS5003;33504;52.066;6.096;2023-01-30T11:09:36;5;3;
47741;PMS5003;33504;52.066;6.096;2023-01-30T11:12:08;3;3;
47741;PMS5003;33504;52.066;6.096;2023-01-30T11:14:52;5;5;
47741;PMS5003;33504;52.066;6.096;2023-01-30T11:17:23;7;5;
47741;PMS5003;33504;52.066;6.096;2023-01-30T11:19:56;6;5;
47741;PMS5003;33504;52.066;6.096;2023-01-30T11:22:27;5;4;
47741;PMS5003;33504;52.066;6.096;2023-01-30T11:25:02;4;3;
47741;PMS5003;33504;52.066;6.096;2023-01-30T11:27:32;5;3;
47741;PMS5003;33504;52.066;6.096;2023-01-30T11:30:03;4;2;
47741;PMS5003;33504;52.066;6.096;2023-01-30T11:32:32;4;3;
47741;PMS5003;33504;52.066;6.096;2023-01-30T11:35:02;4;3;
47741;PMS5003;33504;52.066;6.096;2023-01-30T11:37:45;4;3;
47741;PMS5003;33504;52.066;6.096;2023-01-30T11:40:18;9;6;
47741;PMS5003;33504;52.066;6.096;2023-01-30T11:42:50;7;5;
47741;PMS5003;33504;52.066;6.096;2023-01-30T11:45:23;5;3;
47741;PMS5003;33504;52.066;6.096;2023-01-30T11:47:52;7;5;
47741;PMS5003;33504;52.066;6.096;2023-01-30T11:50:24;5;4;
47741;PMS5003;33504;52.066;6.096;2023-01-30T11:52:57;7;5;
47741;PMS5003;33504;52.066;6.096;2023-01-30T11:55:38;4;3;
47741;PMS5003;33504;52.066;6.096;2023-01-30T11:58:06;4;3;
47741;PMS5003;33504;52.066;6.096;2023-01-30T12:00:36;6;5;
47741;PMS5003;33504;52.066;6.096;2023-01-30T12:03:08;6;4;
47741;PMS5003;33504;52.066;6.096;2023-01-30T12:05:38;8;6;
47741;PMS5003;33504;52.066;6.096;2023-01-30T12:08:12;7;5;
47741;PMS5003;33504;52.066;6.096;2023-01-30T12:10:49;8;6;
47741;PMS5003;33504;52.066;6.096;2023-01-30T12:13:19;5;3;
47741;PMS5003;33504;52.066;6.096;2023-01-30T12:15:50;4;4;
47741;PMS5003;33504;52.066;6.096;2023-01-30T12:18:24;4;4;
47741;PMS5003;33504;52.066;6.096;2023-01-30T12:20:58;10;8;
47741;PMS5003;33504;52.066;6.096;2023-01-30T12:23:30;5;3;
47741;PMS5003;33504;52.066;6.096;2023-01-30T12:26:04;6;6;
47741;PMS5003;33504;52.066;6.096;2023-01-30T12:28:40;6;5;
47741;PMS5003;33504;52.066;6.096;2023-01-30T12:31:15;4;4;
47741;PMS5003;33504;52.066;6.096;2023-01-30T12:33:48;7;5;
47741;PMS5003;33504;52.066;6.096;2023-01-30T12:36:19;6;5;
47741;PMS5003;33504;52.066;6.096;2023-01-30T12:38:55;8;5;
47741;PMS5003;33504;52.066;6.096;2023-01-30T12:41:34;11;8;
47741;PMS5003;33504;52.066;6.096;2023-01-30T12:44:18;6;6;
47741;PMS5003;33504;52.066;6.096;2023-01-30T12:46:57;11;5;
47741;PMS5003;33504;52.066;6.096;2023-01-30T12:49:38;9;7;
47741;PMS5003;33504;52.066;6.096;2023-01-30T12:52:20;7;5;
47741;PMS5003;33504;52.066;6.096;2023-01-30T12:55:01;7;6;
47741;PMS5003;33504;52.066;6.096;2023-01-30T12:57:45;7;6;
47741;PMS5003;33504;52.066;6.096;2023-01-30T13:00:23;6;3;
47741;PMS5003;33504;52.066;6.096;2023-01-30T13:03:04;7;5;
47741;PMS5003;33504;52.066;6.096;2023-01-30T13:05:45;9;7;
47741;PMS5003;33504;52.066;6.096;2023-01-30T13:08:21;9;8;
47741;PMS5003;33504;52.066;6.096;2023-01-30T13:11:04;7;6;
47741;PMS5003;33504;52.066;6.096;2023-01-30T13:13:44;8;5;
47741;PMS5003;33504;52.066;6.096;2023-01-30T13:16:24;8;6;
47741;PMS5003;33504;52.066;6.096;2023-01-30T13:18:59;4;3;
47741;PMS5003;33504;52.066;6.096;2023-01-30T13:21:33;10;7;
47741;PMS5003;33504;52.066;6.096;2023-01-30T13:24:11;5;3;
47741;PMS5003;33504;52.066;6.096;2023-01-30T13:26:47;6;4;
47741;PMS5003;33504;52.066;6.096;2023-01-30T13:29:19;4;4;
47741;PMS5003;33504;52.066;6.096;2023-01-30T13:31:55;4;3;
47741;PMS5003;33504;52.066;6.096;2023-01-30T13:34:27;6;3;
47741;PMS5003;33504;52.066;6.096;2023-01-30T13:37:00;4;1;
47741;PMS5003;33504;52.066;6.096;2023-01-30T13:39:32;14;14;
47741;PMS5003;33504;52.066;6.096;2023-01-30T13:42:05;12;10;
47741;PMS5003;33504;52.066;6.096;2023-01-30T13:44:41;7;6;
47741;PMS5003;33504;52.066;6.096;2023-01-30T13:47:13;10;8;
47741;PMS5003;33504;52.066;6.096;2023-01-30T13:49:51;15;12;
47741;PMS5003;33504;52.066;6.096;2023-01-30T13:52:44;28;23;
47741;PMS5003;33504;52.066;6.096;2023-01-30T13:55:23;13;11;
47741;PMS5003;33504;52.066;6.096;2023-01-30T13:57:54;13;10;
47741;PMS5003;33504;52.066;6.096;2023-01-30T14:00:28;13;11;
47741;PMS5003;33504;52.066;6.096;2023-01-30T14:03:32;11;8;
47741;PMS5003;33504;52.066;6.096;2023-01-30T14:06:01;12;9;
47741;PMS5003;33504;52.066;6.096;2023-01-30T14:08:54;10;8;
47741;PMS5003;33504;52.066;6.096;2023-01-30T14:11:26;7;5;
47741;PMS5003;33504;52.066;6.096;2023-01-30T14:13:57;15;12;
47741;PMS5003;33504;52.066;6.096;2023-01-30T14:16:44;9;5;
47741;PMS5003;33504;52.066;6.096;2023-01-30T14:19:30;10;9;
47741;PMS5003;33504;52.066;6.096;2023-01-30T14:22:00;7;6;
47741;PMS5003;33504;52.066;6.096;2023-01-30T14:24:30;8;6;
47741;PMS5003;33504;52.066;6.096;2023-01-30T14:27:02;8;7;
47741;PMS5003;33504;52.066;6.096;2023-01-30T14:29:51;10;8;
47741;PMS5003;33504;52.066;6.096;2023-01-30T14:32:50;3;3;
47741;PMS5003;33504;52.066;6.096;2023-01-30T14:35:21;10;8;
47741;PMS5003;33504;52.066;6.096;2023-01-30T14:37:51;10;6;
47741;PMS5003;33504;52.066;6.096;2023-01-30T14:40:39;6;5;
47741;PMS5003;33504;52.066;6.096;2023-01-30T14:43:25;5;4;
47741;PMS5003;33504;52.066;6.096;2023-01-30T14:46:01;9;7;
47741;PMS5003;33504;52.066;6.096;2023-01-30T14:48:30;6;5;
47741;PMS5003;33504;52.066;6.096;2023-01-30T14:51:33;6;4;
47741;PMS5003;33504;52.066;6.096;2023-01-30T14:54:02;11;10;
47741;PMS5003;33504;52.066;6.096;2023-01-30T14:56:45;7;6;
47741;PMS5003;33504;52.066;6.096;2023-01-30T14:59:18;10;7;
47741;PMS5003;33504;52.066;6.096;2023-01-30T15:01:57;6;3;
47741;PMS5003;33504;52.066;6.096;2023-01-30T15:04:29;4;4;
47741;PMS5003;33504;52.066;6.096;2023-01-30T15:06:58;8;7;
47741;PMS5003;33504;52.066;6.096;2023-01-30T15:09:31;6;3;
47741;PMS5003;33504;52.066;6.096;2023-01-30T15:12:04;8;5;
47741;PMS5003;33504;52.066;6.096;2023-01-30T15:14:49;8;5;
47741;PMS5003;33504;52.066;6.096;2023-01-30T15:17:28;6;3;
47741;PMS5003;33504;52.066;6.096;2023-01-30T15:20:08;5;5;
47741;PMS5003;33504;52.066;6.096;2023-01-30T15:22:47;12;8;
47741;PMS5003;33504;52.066;6.096;2023-01-30T15:25:29;5;3;
47741;PMS5003;33504;52.066;6.096;2023-01-30T15:28:12;8;6;
47741;PMS5003;33504;52.066;6.096;2023-01-30T15:30:52;9;6;
47741;PMS5003;33504;52.066;6.096;2023-01-30T15:33:26;9;8;
47741;PMS5003;33504;52.066;6.096;2023-01-30T15:35:53;4;2;
47741;PMS5003;33504;52.066;6.096;2023-01-30T15:38:22;5;4;
47741;PMS5003;33504;52.066;6.096;2023-01-30T15:40:52;6;4;
47741;PMS5003;33504;52.066;6.096;2023-01-30T15:43:27;11;9;
47741;PMS5003;33504;52.066;6.096;2023-01-30T15:46:25;8;6;
47741;PMS5003;33504;52.066;6.096;2023-01-30T15:49:05;10;8;
47741;PMS5003;33504;52.066;6.096;2023-01-30T15:51:47;7;6;
47741;PMS5003;33504;52.066;6.096;2023-01-30T15:54:15;8;7;
47741;PMS5003;33504;52.066;6.096;2023-01-30T15:56:46;7;5;
47741;PMS5003;33504;52.066;6.096;2023-01-30T15:59:19;5;5;
47741;PMS5003;33504;52.066;6.096;2023-01-30T16:01:58;9;5;
47741;PMS5003;33504;52.066;6.096;2023-01-30T16:04:27;8;6;
47741;PMS5003;33504;52.066;6.096;2023-01-30T16:06:55;7;4;
47741;PMS5003;33504;52.066;6.096;2023-01-30T16:09:24;8;7;
47741;PMS5003;33504;52.066;6.096;2023-01-30T16:11:52;7;6;
47741;PMS5003;33504;52.066;6.096;2023-01-30T16:14:19;12;9;
47741;PMS5003;33504;52.066;6.096;2023-01-30T16:16:48;7;4;
47741;PMS5003;33504;52.066;6.096;2023-01-30T16:19:20;8;6;
47741;PMS5003;33504;52.066;6.096;2023-01-30T16:21:50;7;5;
47741;PMS5003;33504;52.066;6.096;2023-01-30T16:24:21;5;4;
47741;PMS5003;33504;52.066;6.096;2023-01-30T16:26:50;5;4;
47741;PMS5003;33504;52.066;6.096;2023-01-30T16:29:20;8;5;
47741;PMS5003;33504;52.066;6.096;2023-01-30T16:31:50;9;7;
47741;PMS5003;33504;52.066;6.096;2023-01-30T16:34:22;4;4;
47741;PMS5003;33504;52.066;6.096;2023-01-30T16:36:54;7;4;
47741;PMS5003;33504;52.066;6.096;2023-01-30T16:39:28;6;3;
47741;PMS5003;33504;52.066;6.096;2023-01-30T16:41:58;9;5;
47741;PMS5003;33504;52.066;6.096;2023-01-30T16:44:26;4;3;
47741;PMS5003;33504;52.066;6.096;2023-01-30T16:46:56;6;3;
47741;PMS5003;33504;52.066;6.096;2023-01-30T16:49:30;8;4;
47741;PMS5003;33504;52.066;6.096;2023-01-30T16:52:12;12;8;
47741;PMS5003;33504;52.066;6.096;2023-01-30T16:54:44;4;3;
47741;PMS5003;33504;52.066;6.096;2023-01-30T16:57:17;7;3;
47741;PMS5003;33504;52.066;6.096;2023-01-30T16:59:52;7;6;
47741;PMS5003;33504;52.066;6.096;2023-01-30T17:02:23;9;5;
47741;PMS5003;33504;52.066;6.096;2023-01-30T17:05:09;6;5;